sensor_id;sensor_type;location;lat;lon;timestamp;P1;durP1;ratioP1;P2;durP2;ratioP2
71502;SDS011;59322;51.382;7.372;2023-07-29T00:01:18;59.70;;;56.00;;
71502;SDS011;59322;51.382;7.372;2023-07-29T00:03:44;54.92;;;51.60;;
71502;SDS011;59322;51.382;7.372;2023-07-29T00:06:09;53.67;;;50.50;;
71502;SDS011;59322;51.382;7.372;2023-07-29T00:08:35;52.35;;;49.30;;
71502;SDS011;59322;51.382;7.372;2023-07-29T00:11:01;54.50;;;51.20;;
71502;SDS011;59322;51.382;7.372;2023-07-29T00:13:27;52.13;;;48.92;;
71502;SDS011;59322;51.382;7.372;2023-07-29T00:15:54;52.17;;;49.00;;
71502;SDS011;59322;51.382;7.372;2023-07-29T00:18:20;53.92;;;50.63;;
71502;SDS011;59322;51.382;7.372;2023-07-29T00:20:46;53.78;;;50.58;;
71502;SDS011;59322;51.382;7.372;2023-07-29T00:23:12;51.45;;;48.35;;
71502;SDS011;59322;51.382;7.372;2023-07-29T00:25:37;50.22;;;47.28;;
71502;SDS011;59322;51.382;7.372;2023-07-29T00:28:03;50.42;;;47.35;;
71502;SDS011;59322;51.382;7.372;2023-07-29T00:30:29;51.40;;;48.20;;
71502;SDS011;59322;51.382;7.372;2023-07-29T00:32:55;53.38;;;50.15;;
71502;SDS011;59322;51.382;7.372;2023-07-29T00:35:21;51.83;;;48.55;;
71502;SDS011;59322;51.382;7.372;2023-07-29T00:37:47;49.83;;;46.72;;
71502;SDS011;59322;51.382;7.372;2023-07-29T00:40:18;51.88;;;48.72;;
71502;SDS011;59322;51.382;7.372;2023-07-29T00:42:45;52.85;;;49.65;;
71502;SDS011;59322;51.382;7.372;2023-07-29T00:45:11;50.50;;;47.50;;
71502;SDS011;59322;51.382;7.372;2023-07-29T00:47:37;48.28;;;45.38;;
71502;SDS011;59322;51.382;7.372;2023-07-29T00:50:03;50.03;;;47.05;;
71502;SDS011;59322;51.382;7.372;2023-07-29T00:52:29;49.60;;;46.60;;
71502;SDS011;59322;51.382;7.372;2023-07-29T00:54:55;48.38;;;45.47;;
71502;SDS011;59322;51.382;7.372;2023-07-29T00:57:21;45.78;;;42.95;;
71502;SDS011;59322;51.382;7.372;2023-07-29T00:59:47;48.88;;;45.90;;
71502;SDS011;59322;51.382;7.372;2023-07-29T01:02:13;49.20;;;46.22;;
71502;SDS011;59322;51.382;7.372;2023-07-29T01:04:39;49.28;;;46.30;;
71502;SDS011;59322;51.382;7.372;2023-07-29T01:07:07;47.47;;;44.65;;
71502;SDS011;59322;51.382;7.372;2023-07-29T01:09:41;47.90;;;44.95;;
71502;SDS011;59322;51.382;7.372;2023-07-29T01:12:13;48.33;;;45.40;;
71502;SDS011;59322;51.382;7.372;2023-07-29T01:14:46;46.75;;;43.78;;
71502;SDS011;59322;51.382;7.372;2023-07-29T01:17:13;46.63;;;43.60;;
71502;SDS011;59322;51.382;7.372;2023-07-29T01:22:19;48.28;;;45.22;;
71502;SDS011;59322;51.382;7.372;2023-07-29T01:24:46;45.58;;;42.78;;
71502;SDS011;59322;51.382;7.372;2023-07-29T01:27:12;44.83;;;41.85;;
71502;SDS011;59322;51.382;7.372;2023-07-29T01:29:37;47.83;;;44.80;;
71502;SDS011;59322;51.382;7.372;2023-07-29T01:32:06;44.03;;;41.38;;
71502;SDS011;59322;51.382;7.372;2023-07-29T01:34:35;44.72;;;41.90;;
71502;SDS011;59322;51.382;7.372;2023-07-29T01:37:03;47.08;;;44.10;;
71502;SDS011;59322;51.382;7.372;2023-07-29T01:39:34;49.25;;;46.15;;
71502;SDS011;59322;51.382;7.372;2023-07-29T01:42:02;48.65;;;45.45;;
71502;SDS011;59322;51.382;7.372;2023-07-29T01:44:28;49.05;;;45.85;;
71502;SDS011;59322;51.382;7.372;2023-07-29T01:46:57;48.75;;;45.70;;
71502;SDS011;59322;51.382;7.372;2023-07-29T01:49:23;47.55;;;44.65;;
71502;SDS011;59322;51.382;7.372;2023-07-29T01:51:49;;;;;;
71502;SDS011;59322;51.382;7.372;2023-07-29T01:51:49;47.47;;;44.33;;
71502;SDS011;59322;51.382;7.372;2023-07-29T01:54:15;48.65;;;45.42;;
71502;SDS011;59322;51.382;7.372;2023-07-29T01:54:15;;;;;;
71502;SDS011;59322;51.382;7.372;2023-07-29T01:56:40;;;;;;
71502;SDS011;59322;51.382;7.372;2023-07-29T01:56:40;48.40;;;45.45;;
71502;SDS011;59322;51.382;7.372;2023-07-29T01:59:06;;;;;;
71502;SDS011;59322;51.382;7.372;2023-07-29T01:59:06;42.80;;;40.15;;
71502;SDS011;59322;51.382;7.372;2023-07-29T02:01:31;44.08;;;41.47;;
71502;SDS011;59322;51.382;7.372;2023-07-29T02:01:31;;;;;;
71502;SDS011;59322;51.382;7.372;2023-07-29T02:03:56;45.17;;;42.35;;
71502;SDS011;59322;51.382;7.372;2023-07-29T02:03:57;;;;;;
71502;SDS011;59322;51.382;7.372;2023-07-29T02:06:22;44.70;;;41.90;;
71502;SDS011;59322;51.382;7.372;2023-07-29T02:06:23;;;;;;
71502;SDS011;59322;51.382;7.372;2023-07-29T02:08:48;;;;;;
71502;SDS011;59322;51.382;7.372;2023-07-29T02:08:48;45.97;;;42.95;;
71502;SDS011;59322;51.382;7.372;2023-07-29T02:11:14;;;;;;
71502;SDS011;59322;51.382;7.372;2023-07-29T02:11:14;46.90;;;44.10;;
71502;SDS011;59322;51.382;7.372;2023-07-29T02:13:39;45.65;;;42.95;;
71502;SDS011;59322;51.382;7.372;2023-07-29T02:13:40;;;;;;
71502;SDS011;59322;51.382;7.372;2023-07-29T02:16:05;43.92;;;41.10;;
71502;SDS011;59322;51.382;7.372;2023-07-29T02:16:05;;;;;;
71502;SDS011;59322;51.382;7.372;2023-07-29T02:18:30;44.33;;;41.67;;
71502;SDS011;59322;51.382;7.372;2023-07-29T02:18:31;;;;;;
71502;SDS011;59322;51.382;7.372;2023-07-29T02:20:56;;;;;;
71502;SDS011;59322;51.382;7.372;2023-07-29T02:20:56;43.03;;;40.53;;
71502;SDS011;59322;51.382;7.372;2023-07-29T02:23:21;45.50;;;42.67;;
71502;SDS011;59322;51.382;7.372;2023-07-29T02:23:22;;;;;;
71502;SDS011;59322;51.382;7.372;2023-07-29T02:25:47;42.85;;;39.63;;
71502;SDS011;59322;51.382;7.372;2023-07-29T02:25:47;;;;;;
71502;SDS011;59322;51.382;7.372;2023-07-29T02:28:12;42.72;;;40.22;;
71502;SDS011;59322;51.382;7.372;2023-07-29T02:30:40;40.72;;;38.33;;
71502;SDS011;59322;51.382;7.372;2023-07-29T02:33:06;40.88;;;38.35;;
71502;SDS011;59322;51.382;7.372;2023-07-29T02:33:07;;;;;;
71502;SDS011;59322;51.382;7.372;2023-07-29T02:35:32;44.80;;;42.10;;
71502;SDS011;59322;51.382;7.372;2023-07-29T02:37:57;42.35;;;39.53;;
71502;SDS011;59322;51.382;7.372;2023-07-29T02:40:23;45.25;;;42.45;;
71502;SDS011;59322;51.382;7.372;2023-07-29T02:42:49;42.78;;;40.20;;
71502;SDS011;59322;51.382;7.372;2023-07-29T02:45:15;44.15;;;41.45;;
71502;SDS011;59322;51.382;7.372;2023-07-29T02:47:41;45.70;;;42.80;;
71502;SDS011;59322;51.382;7.372;2023-07-29T02:50:07;44.00;;;41.30;;
71502;SDS011;59322;51.382;7.372;2023-07-29T02:52:33;43.95;;;41.20;;
71502;SDS011;59322;51.382;7.372;2023-07-29T02:54:59;42.70;;;39.92;;
71502;SDS011;59322;51.382;7.372;2023-07-29T02:57:25;43.05;;;40.45;;
71502;SDS011;59322;51.382;7.372;2023-07-29T02:59:51;45.15;;;42.50;;
71502;SDS011;59322;51.382;7.372;2023-07-29T03:02:17;45.30;;;42.35;;
71502;SDS011;59322;51.382;7.372;2023-07-29T03:04:42;44.47;;;41.42;;
71502;SDS011;59322;51.382;7.372;2023-07-29T03:07:08;43.83;;;41.22;;
71502;SDS011;59322;51.382;7.372;2023-07-29T03:09:34;42.88;;;40.35;;
71502;SDS011;59322;51.382;7.372;2023-07-29T03:12:03;45.75;;;42.97;;
71502;SDS011;59322;51.382;7.372;2023-07-29T03:14:29;45.03;;;42.20;;
71502;SDS011;59322;51.382;7.372;2023-07-29T03:16:55;44.45;;;41.50;;
71502;SDS011;59322;51.382;7.372;2023-07-29T03:19:20;44.28;;;41.53;;
71502;SDS011;59322;51.382;7.372;2023-07-29T03:21:46;43.55;;;40.75;;
71502;SDS011;59322;51.382;7.372;2023-07-29T03:24:12;39.83;;;37.33;;
71502;SDS011;59322;51.382;7.372;2023-07-29T03:26:38;39.92;;;37.47;;
71502;SDS011;59322;51.382;7.372;2023-07-29T03:29:04;40.83;;;38.33;;
71502;SDS011;59322;51.382;7.372;2023-07-29T03:31:30;41.95;;;39.15;;
71502;SDS011;59322;51.382;7.372;2023-07-29T03:33:56;40.53;;;37.90;;
71502;SDS011;59322;51.382;7.372;2023-07-29T03:36:22;40.65;;;38.03;;
71502;SDS011;59322;51.382;7.372;2023-07-29T03:38:48;42.92;;;40.08;;
71502;SDS011;59322;51.382;7.372;2023-07-29T03:41:13;42.53;;;39.67;;
71502;SDS011;59322;51.382;7.372;2023-07-29T03:43:41;41.33;;;38.63;;
71502;SDS011;59322;51.382;7.372;2023-07-29T03:46:07;44.95;;;41.97;;
71502;SDS011;59322;51.382;7.372;2023-07-29T03:48:33;44.75;;;41.95;;
71502;SDS011;59322;51.382;7.372;2023-07-29T03:50:58;41.60;;;38.95;;
71502;SDS011;59322;51.382;7.372;2023-07-29T03:53:24;43.22;;;39.88;;
71502;SDS011;59322;51.382;7.372;2023-07-29T03:55:50;45.53;;;42.63;;
71502;SDS011;59322;51.382;7.372;2023-07-29T03:58:16;41.85;;;39.05;;
71502;SDS011;59322;51.382;7.372;2023-07-29T04:00:42;44.22;;;41.22;;
71502;SDS011;59322;51.382;7.372;2023-07-29T04:03:08;42.53;;;39.85;;
71502;SDS011;59322;51.382;7.372;2023-07-29T04:05:34;44.33;;;41.45;;
71502;SDS011;59322;51.382;7.372;2023-07-29T04:08:00;43.63;;;40.83;;
71502;SDS011;59322;51.382;7.372;2023-07-29T04:10:26;42.50;;;39.63;;
71502;SDS011;59322;51.382;7.372;2023-07-29T04:12:52;44.90;;;41.85;;
71502;SDS011;59322;51.382;7.372;2023-07-29T04:15:18;47.67;;;44.17;;
71502;SDS011;59322;51.382;7.372;2023-07-29T04:17:43;51.20;;;47.60;;
71502;SDS011;59322;51.382;7.372;2023-07-29T04:20:10;51.22;;;47.42;;
71502;SDS011;59322;51.382;7.372;2023-07-29T04:22:36;50.92;;;47.10;;
71502;SDS011;59322;51.382;7.372;2023-07-29T04:25:02;52.70;;;49.15;;
71502;SDS011;59322;51.382;7.372;2023-07-29T04:27:27;54.53;;;50.92;;
71502;SDS011;59322;51.382;7.372;2023-07-29T04:29:53;54.95;;;51.20;;
71502;SDS011;59322;51.382;7.372;2023-07-29T04:32:19;50.40;;;46.72;;
71502;SDS011;59322;51.382;7.372;2023-07-29T04:34:45;52.38;;;48.58;;
71502;SDS011;59322;51.382;7.372;2023-07-29T04:37:11;53.67;;;49.67;;
71502;SDS011;59322;51.382;7.372;2023-07-29T04:39:37;55.22;;;50.95;;
71502;SDS011;59322;51.382;7.372;2023-07-29T04:42:03;56.63;;;52.55;;
71502;SDS011;59322;51.382;7.372;2023-07-29T04:44:29;56.22;;;52.10;;
71502;SDS011;59322;51.382;7.372;2023-07-29T04:46:55;48.75;;;45.05;;
71502;SDS011;59322;51.382;7.372;2023-07-29T04:49:21;50.78;;;47.17;;
71502;SDS011;59322;51.382;7.372;2023-07-29T04:51:47;50.75;;;47.05;;
71502;SDS011;59322;51.382;7.372;2023-07-29T04:54:14;49.92;;;45.95;;
71502;SDS011;59322;51.382;7.372;2023-07-29T04:56:40;51.83;;;47.83;;
71502;SDS011;59322;51.382;7.372;2023-07-29T04:59:06;51.17;;;47.35;;
71502;SDS011;59322;51.382;7.372;2023-07-29T05:01:32;47.03;;;43.53;;
71502;SDS011;59322;51.382;7.372;2023-07-29T05:03:57;49.60;;;46.13;;
71502;SDS011;59322;51.382;7.372;2023-07-29T05:06:23;53.88;;;49.75;;
71502;SDS011;59322;51.382;7.372;2023-07-29T05:08:49;56.47;;;52.35;;
71502;SDS011;59322;51.382;7.372;2023-07-29T05:11:15;53.45;;;49.58;;
71502;SDS011;59322;51.382;7.372;2023-07-29T05:13:41;54.78;;;50.55;;
71502;SDS011;59322;51.382;7.372;2023-07-29T05:16:07;56.42;;;52.38;;
71502;SDS011;59322;51.382;7.372;2023-07-29T05:18:33;55.63;;;51.30;;
71502;SDS011;59322;51.382;7.372;2023-07-29T05:20:59;58.95;;;54.30;;
71502;SDS011;59322;51.382;7.372;2023-07-29T05:23:25;66.45;;;61.95;;
71502;SDS011;59322;51.382;7.372;2023-07-29T05:25:50;69.45;;;64.75;;
71502;SDS011;59322;51.382;7.372;2023-07-29T05:28:16;62.45;;;58.05;;
71502;SDS011;59322;51.382;7.372;2023-07-29T05:30:43;57.72;;;53.83;;
71502;SDS011;59322;51.382;7.372;2023-07-29T05:33:09;53.17;;;49.55;;
71502;SDS011;59322;51.382;7.372;2023-07-29T05:35:35;66.68;;;62.60;;
71502;SDS011;59322;51.382;7.372;2023-07-29T05:38:01;62.75;;;58.75;;
71502;SDS011;59322;51.382;7.372;2023-07-29T05:40:28;58.15;;;54.60;;
71502;SDS011;59322;51.382;7.372;2023-07-29T05:42:54;42.53;;;39.78;;
71502;SDS011;59322;51.382;7.372;2023-07-29T05:45:20;44.33;;;41.42;;
71502;SDS011;59322;51.382;7.372;2023-07-29T05:47:46;50.60;;;47.60;;
71502;SDS011;59322;51.382;7.372;2023-07-29T05:50:12;40.03;;;37.58;;
71502;SDS011;59322;51.382;7.372;2023-07-29T05:52:37;37.05;;;34.55;;
71502;SDS011;59322;51.382;7.372;2023-07-29T05:55:03;34.60;;;32.25;;
71502;SDS011;59322;51.382;7.372;2023-07-29T05:57:29;33.65;;;31.45;;
71502;SDS011;59322;51.382;7.372;2023-07-29T05:59:55;30.42;;;28.52;;
71502;SDS011;59322;51.382;7.372;2023-07-29T06:02:21;36.72;;;34.42;;
71502;SDS011;59322;51.382;7.372;2023-07-29T06:04:47;47.75;;;44.83;;
71502;SDS011;59322;51.382;7.372;2023-07-29T06:07:13;49.53;;;46.53;;
71502;SDS011;59322;51.382;7.372;2023-07-29T06:09:39;56.70;;;53.17;;
71502;SDS011;59322;51.382;7.372;2023-07-29T06:12:05;37.92;;;35.63;;
71502;SDS011;59322;51.382;7.372;2023-07-29T06:14:31;38.00;;;35.67;;
71502;SDS011;59322;51.382;7.372;2023-07-29T06:16:57;40.00;;;37.60;;
71502;SDS011;59322;51.382;7.372;2023-07-29T06:19:23;38.22;;;35.92;;
71502;SDS011;59322;51.382;7.372;2023-07-29T06:21:49;48.85;;;45.88;;
71502;SDS011;59322;51.382;7.372;2023-07-29T06:24:14;65.28;;;61.38;;
71502;SDS011;59322;51.382;7.372;2023-07-29T06:26:40;91.38;;;86.35;;
71502;SDS011;59322;51.382;7.372;2023-07-29T06:29:06;59.45;;;56.05;;
71502;SDS011;59322;51.382;7.372;2023-07-29T06:31:32;77.15;;;72.80;;
71502;SDS011;59322;51.382;7.372;2023-07-29T06:33:58;61.25;;;57.70;;
71502;SDS011;59322;51.382;7.372;2023-07-29T06:36:24;56.22;;;53.03;;
71502;SDS011;59322;51.382;7.372;2023-07-29T06:38:50;48.58;;;45.75;;
71502;SDS011;59322;51.382;7.372;2023-07-29T06:41:16;53.33;;;50.22;;
71502;SDS011;59322;51.382;7.372;2023-07-29T06:43:42;44.28;;;41.42;;
71502;SDS011;59322;51.382;7.372;2023-07-29T06:46:08;35.80;;;33.65;;
71502;SDS011;59322;51.382;7.372;2023-07-29T06:48:34;34.80;;;32.65;;
71502;SDS011;59322;51.382;7.372;2023-07-29T06:51:00;35.78;;;33.67;;
71502;SDS011;59322;51.382;7.372;2023-07-29T06:53:26;39.53;;;37.22;;
71502;SDS011;59322;51.382;7.372;2023-07-29T06:55:52;41.05;;;38.55;;
71502;SDS011;59322;51.382;7.372;2023-07-29T06:58:18;33.75;;;31.55;;
71502;SDS011;59322;51.382;7.372;2023-07-29T07:00:44;53.15;;;50.22;;
71502;SDS011;59322;51.382;7.372;2023-07-29T07:03:10;41.58;;;39.17;;
71502;SDS011;59322;51.382;7.372;2023-07-29T07:05:36;32.88;;;30.83;;
71502;SDS011;59322;51.382;7.372;2023-07-29T07:08:02;28.85;;;27.00;;
71502;SDS011;59322;51.382;7.372;2023-07-29T07:10:28;30.88;;;29.10;;
71502;SDS011;59322;51.382;7.372;2023-07-29T07:12:54;30.95;;;28.95;;
71502;SDS011;59322;51.382;7.372;2023-07-29T07:15:20;35.40;;;33.33;;
71502;SDS011;59322;51.382;7.372;2023-07-29T07:17:46;37.88;;;35.58;;
71502;SDS011;59322;51.382;7.372;2023-07-29T07:20:11;32.55;;;30.60;;
71502;SDS011;59322;51.382;7.372;2023-07-29T07:22:37;26.23;;;24.65;;
71502;SDS011;59322;51.382;7.372;2023-07-29T07:25:03;26.90;;;25.33;;
71502;SDS011;59322;51.382;7.372;2023-07-29T07:27:29;26.92;;;25.35;;
71502;SDS011;59322;51.382;7.372;2023-07-29T07:29:55;28.00;;;26.30;;
71502;SDS011;59322;51.382;7.372;2023-07-29T07:32:21;27.35;;;25.75;;
71502;SDS011;59322;51.382;7.372;2023-07-29T07:34:47;28.38;;;26.65;;
71502;SDS011;59322;51.382;7.372;2023-07-29T07:37:13;25.27;;;23.67;;
71502;SDS011;59322;51.382;7.372;2023-07-29T07:39:39;29.92;;;27.73;;
71502;SDS011;59322;51.382;7.372;2023-07-29T07:42:05;30.85;;;28.85;;
71502;SDS011;59322;51.382;7.372;2023-07-29T07:44:31;30.92;;;29.05;;
71502;SDS011;59322;51.382;7.372;2023-07-29T07:46:57;28.88;;;27.13;;
71502;SDS011;59322;51.382;7.372;2023-07-29T07:49:23;34.67;;;32.75;;
71502;SDS011;59322;51.382;7.372;2023-07-29T07:51:48;40.20;;;37.90;;
71502;SDS011;59322;51.382;7.372;2023-07-29T07:54:14;37.90;;;35.70;;
71502;SDS011;59322;51.382;7.372;2023-07-29T07:56:40;43.47;;;40.97;;
71502;SDS011;59322;51.382;7.372;2023-07-29T07:59:06;44.40;;;41.63;;
71502;SDS011;59322;51.382;7.372;2023-07-29T08:01:35;34.08;;;32.08;;
71502;SDS011;59322;51.382;7.372;2023-07-29T08:04:01;25.55;;;23.95;;
71502;SDS011;59322;51.382;7.372;2023-07-29T08:06:27;29.08;;;27.40;;
71502;SDS011;59322;51.382;7.372;2023-07-29T08:08:53;33.53;;;31.60;;
71502;SDS011;59322;51.382;7.372;2023-07-29T08:11:19;25.85;;;24.35;;
71502;SDS011;59322;51.382;7.372;2023-07-29T08:13:45;31.95;;;30.15;;
71502;SDS011;59322;51.382;7.372;2023-07-29T08:16:11;24.15;;;22.63;;
71502;SDS011;59322;51.382;7.372;2023-07-29T08:18:37;30.10;;;28.30;;
71502;SDS011;59322;51.382;7.372;2023-07-29T08:21:03;27.33;;;25.75;;
71502;SDS011;59322;51.382;7.372;2023-07-29T08:23:30;33.58;;;31.58;;
71502;SDS011;59322;51.382;7.372;2023-07-29T08:25:57;35.50;;;33.50;;
71502;SDS011;59322;51.382;7.372;2023-07-29T08:28:23;35.28;;;33.17;;
71502;SDS011;59322;51.382;7.372;2023-07-29T08:30:49;35.67;;;33.75;;
71502;SDS011;59322;51.382;7.372;2023-07-29T08:33:15;35.45;;;33.45;;
71502;SDS011;59322;51.382;7.372;2023-07-29T08:35:41;32.83;;;31.02;;
71502;SDS011;59322;51.382;7.372;2023-07-29T08:38:07;24.30;;;22.90;;
71502;SDS011;59322;51.382;7.372;2023-07-29T08:40:34;36.45;;;34.22;;
71502;SDS011;59322;51.382;7.372;2023-07-29T08:43:04;31.80;;;30.05;;
71502;SDS011;59322;51.382;7.372;2023-07-29T08:45:31;32.63;;;30.83;;
71502;SDS011;59322;51.382;7.372;2023-07-29T08:47:59;33.42;;;31.52;;
71502;SDS011;59322;51.382;7.372;2023-07-29T08:50:28;30.75;;;28.88;;
71502;SDS011;59322;51.382;7.372;2023-07-29T08:52:55;34.72;;;32.83;;
71502;SDS011;59322;51.382;7.372;2023-07-29T08:55:21;29.17;;;27.58;;
71502;SDS011;59322;51.382;7.372;2023-07-29T08:57:47;27.50;;;25.83;;
71502;SDS011;59322;51.382;7.372;2023-07-29T09:00:13;27.85;;;26.15;;
71502;SDS011;59322;51.382;7.372;2023-07-29T09:02:39;26.67;;;25.17;;
71502;SDS011;59322;51.382;7.372;2023-07-29T09:05:05;27.27;;;25.73;;
71502;SDS011;59322;51.382;7.372;2023-07-29T09:07:31;27.48;;;25.77;;
71502;SDS011;59322;51.382;7.372;2023-07-29T09:09:59;23.95;;;22.60;;
71502;SDS011;59322;51.382;7.372;2023-07-29T09:12:25;24.67;;;23.17;;
71502;SDS011;59322;51.382;7.372;2023-07-29T09:14:51;24.67;;;23.27;;
71502;SDS011;59322;51.382;7.372;2023-07-29T09:17:17;26.55;;;24.95;;
71502;SDS011;59322;51.382;7.372;2023-07-29T09:19:47;26.98;;;25.48;;
71502;SDS011;59322;51.382;7.372;2023-07-29T09:22:19;27.08;;;25.35;;
71502;SDS011;59322;51.382;7.372;2023-07-29T09:24:46;23.80;;;22.40;;
71502;SDS011;59322;51.382;7.372;2023-07-29T09:27:27;25.48;;;24.05;;
71502;SDS011;59322;51.382;7.372;2023-07-29T09:29:53;28.13;;;26.55;;
71502;SDS011;59322;51.382;7.372;2023-07-29T09:32:20;25.33;;;23.83;;
71502;SDS011;59322;51.382;7.372;2023-07-29T09:34:46;23.23;;;21.92;;
71502;SDS011;59322;51.382;7.372;2023-07-29T09:37:16;28.25;;;26.67;;
71502;SDS011;59322;51.382;7.372;2023-07-29T09:39:45;24.15;;;22.75;;
71502;SDS011;59322;51.382;7.372;2023-07-29T09:42:16;25.75;;;24.15;;
71502;SDS011;59322;51.382;7.372;2023-07-29T09:44:42;25.08;;;23.67;;
71502;SDS011;59322;51.382;7.372;2023-07-29T09:47:08;35.17;;;32.20;;
71502;SDS011;59322;51.382;7.372;2023-07-29T09:49:35;28.95;;;27.35;;
71502;SDS011;59322;51.382;7.372;2023-07-29T09:52:01;34.40;;;32.50;;
71502;SDS011;59322;51.382;7.372;2023-07-29T09:54:26;29.85;;;28.05;;
71502;SDS011;59322;51.382;7.372;2023-07-29T09:56:52;30.30;;;28.60;;
71502;SDS011;59322;51.382;7.372;2023-07-29T09:59:19;27.45;;;25.90;;
71502;SDS011;59322;51.382;7.372;2023-07-29T10:01:45;30.55;;;28.85;;
71502;SDS011;59322;51.382;7.372;2023-07-29T10:04:11;29.63;;;27.92;;
71502;SDS011;59322;51.382;7.372;2023-07-29T10:06:39;29.75;;;28.05;;
71502;SDS011;59322;51.382;7.372;2023-07-29T10:09:05;27.00;;;25.40;;
71502;SDS011;59322;51.382;7.372;2023-07-29T10:11:31;28.38;;;26.80;;
71502;SDS011;59322;51.382;7.372;2023-07-29T10:13:58;30.98;;;29.08;;
71502;SDS011;59322;51.382;7.372;2023-07-29T10:16:25;28.73;;;26.95;;
71502;SDS011;59322;51.382;7.372;2023-07-29T10:18:52;28.98;;;27.38;;
71502;SDS011;59322;51.382;7.372;2023-07-29T10:21:18;37.50;;;35.03;;
71502;SDS011;59322;51.382;7.372;2023-07-29T10:23:46;36.33;;;34.30;;
71502;SDS011;59322;51.382;7.372;2023-07-29T10:26:12;36.28;;;34.22;;
71502;SDS011;59322;51.382;7.372;2023-07-29T10:28:39;32.45;;;30.55;;
71502;SDS011;59322;51.382;7.372;2023-07-29T10:31:06;28.92;;;27.23;;
71502;SDS011;59322;51.382;7.372;2023-07-29T10:33:32;28.98;;;27.27;;
71502;SDS011;59322;51.382;7.372;2023-07-29T10:35:59;31.17;;;29.27;;
71502;SDS011;59322;51.382;7.372;2023-07-29T10:38:25;28.42;;;26.63;;
71502;SDS011;59322;51.382;7.372;2023-07-29T10:40:52;27.33;;;25.83;;
71502;SDS011;59322;51.382;7.372;2023-07-29T10:43:19;29.50;;;27.65;;
71502;SDS011;59322;51.382;7.372;2023-07-29T10:45:45;29.63;;;27.92;;
71502;SDS011;59322;51.382;7.372;2023-07-29T10:48:12;24.05;;;22.60;;
71502;SDS011;59322;51.382;7.372;2023-07-29T10:50:38;25.23;;;23.73;;
71502;SDS011;59322;51.382;7.372;2023-07-29T10:53:04;25.90;;;24.27;;
71502;SDS011;59322;51.382;7.372;2023-07-29T10:55:34;26.35;;;24.85;;
71502;SDS011;59322;51.382;7.372;2023-07-29T11:00:32;29.73;;;28.08;;
71502;SDS011;59322;51.382;7.372;2023-07-29T11:03:02;29.33;;;27.73;;
71502;SDS011;59322;51.382;7.372;2023-07-29T11:13:28;30.13;;;28.45;;
71502;SDS011;59322;51.382;7.372;2023-07-29T11:15:54;34.33;;;32.42;;
71502;SDS011;59322;51.382;7.372;2023-07-29T11:18:20;29.42;;;27.73;;
71502;SDS011;59322;51.382;7.372;2023-07-29T11:20:46;34.65;;;32.75;;
71502;SDS011;59322;51.382;7.372;2023-07-29T11:23:12;35.05;;;32.95;;
71502;SDS011;59322;51.382;7.372;2023-07-29T11:25:38;36.95;;;34.88;;
71502;SDS011;59322;51.382;7.372;2023-07-29T11:28:04;38.00;;;35.88;;
71502;SDS011;59322;51.382;7.372;2023-07-29T11:30:30;36.45;;;34.50;;
71502;SDS011;59322;51.382;7.372;2023-07-29T11:32:57;33.92;;;31.92;;
71502;SDS011;59322;51.382;7.372;2023-07-29T11:35:23;34.42;;;32.60;;
71502;SDS011;59322;51.382;7.372;2023-07-29T11:37:50;35.45;;;33.45;;
71502;SDS011;59322;51.382;7.372;2023-07-29T11:40:22;34.03;;;32.03;;
71502;SDS011;59322;51.382;7.372;2023-07-29T11:42:50;34.77;;;32.80;;
71502;SDS011;59322;51.382;7.372;2023-07-29T11:45:16;34.58;;;32.65;;
71502;SDS011;59322;51.382;7.372;2023-07-29T11:47:42;33.90;;;31.92;;
71502;SDS011;59322;51.382;7.372;2023-07-29T11:50:11;33.80;;;31.85;;
71502;SDS011;59322;51.382;7.372;2023-07-29T11:52:38;33.58;;;31.67;;
71502;SDS011;59322;51.382;7.372;2023-07-29T11:55:05;30.80;;;28.90;;
71502;SDS011;59322;51.382;7.372;2023-07-29T11:57:31;28.23;;;26.65;;
71502;SDS011;59322;51.382;7.372;2023-07-29T11:59:59;30.88;;;29.17;;
71502;SDS011;59322;51.382;7.372;2023-07-29T12:02:25;24.20;;;22.23;;
71502;SDS011;59322;51.382;7.372;2023-07-29T12:04:51;28.08;;;26.42;;
71502;SDS011;59322;51.382;7.372;2023-07-29T12:07:17;28.17;;;26.48;;
71502;SDS011;59322;51.382;7.372;2023-07-29T12:09:43;30.33;;;28.63;;
71502;SDS011;59322;51.382;7.372;2023-07-29T12:12:10;38.42;;;35.83;;
71502;SDS011;59322;51.382;7.372;2023-07-29T12:14:36;37.22;;;35.13;;
71502;SDS011;59322;51.382;7.372;2023-07-29T12:17:02;36.15;;;34.15;;
71502;SDS011;59322;51.382;7.372;2023-07-29T12:21:58;38.13;;;35.92;;
71502;SDS011;59322;51.382;7.372;2023-07-29T12:24:23;35.92;;;33.78;;
71502;SDS011;59322;51.382;7.372;2023-07-29T12:26:49;33.65;;;31.75;;
71502;SDS011;59322;51.382;7.372;2023-07-29T12:29:16;36.60;;;34.58;;
71502;SDS011;59322;51.382;7.372;2023-07-29T12:31:43;28.05;;;26.48;;
71502;SDS011;59322;51.382;7.372;2023-07-29T12:34:08;31.05;;;29.13;;
71502;SDS011;59322;51.382;7.372;2023-07-29T12:36:50;27.50;;;25.90;;
71502;SDS011;59322;51.382;7.372;2023-07-29T12:41:42;29.33;;;27.65;;
71502;SDS011;59322;51.382;7.372;2023-07-29T12:44:08;26.95;;;25.15;;
71502;SDS011;59322;51.382;7.372;2023-07-29T12:46:34;34.45;;;32.35;;
71502;SDS011;59322;51.382;7.372;2023-07-29T12:49:00;26.23;;;24.73;;
71502;SDS011;59322;51.382;7.372;2023-07-29T12:51:26;37.15;;;35.05;;
71502;SDS011;59322;51.382;7.372;2023-07-29T12:53:53;37.63;;;35.55;;
71502;SDS011;59322;51.382;7.372;2023-07-29T12:56:19;35.38;;;33.25;;
71502;SDS011;59322;51.382;7.372;2023-07-29T12:58:45;36.92;;;34.90;;
71502;SDS011;59322;51.382;7.372;2023-07-29T13:01:11;36.95;;;34.90;;
71502;SDS011;59322;51.382;7.372;2023-07-29T13:03:37;37.22;;;34.85;;
71502;SDS011;59322;51.382;7.372;2023-07-29T13:06:03;38.38;;;36.17;;
71502;SDS011;59322;51.382;7.372;2023-07-29T13:08:29;32.20;;;30.35;;
71502;SDS011;59322;51.382;7.372;2023-07-29T13:10:55;28.42;;;26.75;;
71502;SDS011;59322;51.382;7.372;2023-07-29T13:13:21;28.90;;;27.25;;
71502;SDS011;59322;51.382;7.372;2023-07-29T13:15:47;27.90;;;26.25;;
71502;SDS011;59322;51.382;7.372;2023-07-29T13:18:13;37.50;;;35.38;;
71502;SDS011;59322;51.382;7.372;2023-07-29T13:20:39;45.13;;;42.63;;
71502;SDS011;59322;51.382;7.372;2023-07-29T13:23:05;42.72;;;40.35;;
71502;SDS011;59322;51.382;7.372;2023-07-29T13:25:31;37.50;;;35.38;;
71502;SDS011;59322;51.382;7.372;2023-07-29T13:27:56;45.05;;;42.53;;
71502;SDS011;59322;51.382;7.372;2023-07-29T13:30:22;45.83;;;43.25;;
71502;SDS011;59322;51.382;7.372;2023-07-29T13:32:48;29.85;;;28.05;;
71502;SDS011;59322;51.382;7.372;2023-07-29T13:35:14;27.52;;;25.92;;
71502;SDS011;59322;51.382;7.372;2023-07-29T13:37:40;26.42;;;24.90;;
71502;SDS011;59322;51.382;7.372;2023-07-29T13:40:06;31.15;;;29.40;;
71502;SDS011;59322;51.382;7.372;2023-07-29T13:42:32;25.02;;;23.50;;
71502;SDS011;59322;51.382;7.372;2023-07-29T13:44:58;30.88;;;29.13;;
71502;SDS011;59322;51.382;7.372;2023-07-29T13:47:24;32.65;;;30.75;;
71502;SDS011;59322;51.382;7.372;2023-07-29T13:49:50;32.83;;;30.92;;
71502;SDS011;59322;51.382;7.372;2023-07-29T13:52:16;31.17;;;29.42;;
71502;SDS011;59322;51.382;7.372;2023-07-29T13:54:41;31.63;;;29.92;;
71502;SDS011;59322;51.382;7.372;2023-07-29T13:57:07;34.00;;;32.10;;
71502;SDS011;59322;51.382;7.372;2023-07-29T13:59:33;29.27;;;27.30;;
71502;SDS011;59322;51.382;7.372;2023-07-29T14:01:59;30.80;;;28.90;;